fast night downwind and nail-biting suspense.

Positions CLS

Relevées le 17/08/2010 à 15:53:00 (fr)

Etape 4 – Kinsale >> Cherbourg-Octeville

Départ le 16/08/2010 à 14:45:00 (fr)

Rg Skipper N° Bateau Date Heure Lat Lon Cap Vit Vmg Dist/Ecart

1 Corentin Douguet 16 E.LECLERC MOBILE 17/08/2010 15:30:00 49 36.85′ N 6 38.21′ W 117 9.60 9.50 à 231.20 nm

2 Eric Peron 79 SKIPPER MACIF 2009 17/08/2010 15:30:00 49 38.78′ N 6 36.31′ W 122 9.60 9.60 à 0.10 nm

3 François Gabart 3 SKIPPER MACIF 2010 17/08/2010 15:30:00 49 37.43′ N 6 37.90′ W 124 9.70 9.70 à 0.20 nm

4 Thomas Rouxel 190 CREDIT MUTUEL DE BRETAGNE 17/08/2010 15:30:00 49 33.46′ N 6 46.79′ W 118 10.30 10.30 à 2.90 nm

5 B Francisco Lobato 85 ROFF/TEMPO-TEAM 17/08/2010 15:30:00 49 43.50′ N 6 36.76′ W 119 10.10 9.90 à 3.10 nm

6 Gildas Morvan 1 CERCLE VERT 17/08/2010 15:30:00 49 41.65′ N 6 39.55′ W 124 9.60 9.60 à 3.40 nm

7 Pietro D’Ali 42 I.NOVA.3 17/08/2010 15:30:00 49 43.78′ N 6 37.62′ W 116 10.70 10.50 à 3.70 nm

8 Fabien Delahaye 55 PORT DE CAEN OUISTREHAM 17/08/2010 15:30:00 49 34.01′ N 6 48.53′ W 117 10.20 10.10 à 4.20 nm

9 Jérémie Beyou 99 BPI 17/08/2010 15:30:00 49 38.30′ N 6 45.23′ W 118 10.20 10.10 à 4.60 nm

10 Kito De Pavant 29 GROUPE BEL 17/08/2010 15:30:00 49 41.29′ N 6 42.20′ W 121 9.40 9.40 à 4.60 nm

11 Marc Emig 30 MARCEMIGETMOI.COM 17/08/2010 15:30:00 49 39.77′ N 6 43.91′ W 118 9.70 9.60 à 4.70 nm

12 Jean-Pierre Nicol 68 BERNARD CONTROLS 17/08/2010 15:30:00 49 38.95′ N 6 45.54′ W 114 9.80 9.70 à 5.10 nm

13 Alexis Loison 60 ALLMER INEO-GDF-SUEZ 17/08/2010 15:30:00 49 37.45′ N 6 47.34′ W 121 9.90 9.80 à 5.30 nm

14 Ronan Treussart 80 LUFTHANSA 17/08/2010 15:30:00 49 35.02′ N 6 49.86′ W 118 10.30 10.20 à 5.40 nm

15 Erwan Tabarly 2 NACARAT 17/08/2010 15:30:00 49 34.37′ N 6 53.22′ W 114 10.80 10.70 à 7.00 nm

16 Nicolas Lunven 35 GENERALI 17/08/2010 15:30:00 49 34.95′ N 6 53.33′ W 117 10.60 10.60 à 7.30 nm

17 Laurent Pellecuer 31 ARNOLFINI.FR 17/08/2010 15:30:00 49 43.67′ N 6 44.60′ W 121 9.50 9.40 à 7.30 nm

18 Eric Drouglazet 10 LUISINA 17/08/2010 15:30:00 49 35.72′ N 6 52.52′ W 118 10.60 10.60 à 7.30 nm

19 Karine Fauconnier 15 ERIC BOMPARD CACHEMIRE 17/08/2010 15:30:00 49 36.63′ N 6 52.71′ W 118 10.50 10.40 à 7.80 nm

20 B Arthur Le Vaillant 50 PHILIA PROMOTION IMMOBILIERE 17/08/2010 15:30:00 49 38.72′ N 6 51.23′ W 114 10.30 10.20 à 8.10 nm

21 Nicolas Jossier 64 IMPULSION – ENTREPRENDRE EN PAYS GRANVILLAIS 17/08/2010 15:30:00 49 40.27′ N 6 49.84′ W 120 9.80 9.80 à 8.20 nm

22 B Anthony Marchand 25 ESPOIR REGION BRETAGNE 17/08/2010 15:30:00 49 36.37′ N 6 53.80′ W 119 10.40 10.40 à 8.30 nm

23 Romain Attanasio 97 SAVEOL 17/08/2010 15:30:00 49 36.37′ N 6 54.00′ W 119 10.40 10.30 à 8.40 nm

24 Yann Elies 26 GENERALI – EUROP ASSISTANCE 17/08/2010 15:30:00 49 29.83′ N 7 00.02′ W 118 10.10 10.00 à 8.70 nm

25 Jean-Charles Monnet 70 PARIS15 – CHATEAU PEYRAT-FOURTHON 17/08/2010 15:30:00 49 37.11′ N 6 54.02′ W 118 10.30 10.30 à 8.80 nm

26 B Yoann Richomme 19 DLBC 17/08/2010 15:30:00 49 36.74′ N 6 55.10′ W 119 10.30 10.30 à 9.20 nm

27 Sébastien Josse 192 VENDEE 17/08/2010 15:30:00 49 34.91′ N 6 58.24′ W 118 10.60 10.60 à 10.10 nm

28 Adrien Hardy 9 AGIR RECOUVREMENT 17/08/2010 15:30:00 49 27.37′ N 7 04.93′ W 121 9.70 9.70 à 10.60 nm

29 Jeanne Gregoire 40 BANQUE POPULAIRE 17/08/2010 15:30:00 49 28.86′ N 7 04.04′ W 119 10.30 10.30 à 10.70 nm

30 Jean-Paul Mouren 13 M@RSEILLENTREPRISES 17/08/2010 15:30:00 49 36.67′ N 6 59.21′ W 119 10.50 10.40 à 11.50 nm

31 Laurent Gouezigoux 48 TRIER C’EST PRESERVER 17/08/2010 15:30:00 49 38.14′ N 6 58.64′ W 125 10.70 10.70 à 11.90 nm

32 Frédéric Rivet 88 VENDEE 1 17/08/2010 15:30:00 49 29.87′ N 7 05.37′ W 117 10.10 10.10 à 11.90 nm

33 Jonny Malbon 37 ARTEMIS 17/08/2010 15:30:00 49 32.07′ N 7 07.00′ W 119 9.30 9.20 à 13.80 nm

34 B Damien Guillou 100 LA SOLIDARITE MUTUALISTE 17/08/2010 15:30:00 49 30.44′ N 7 08.84′ W 120 9.60 9.60 à 14.20 nm

35 B Damien Cloarec 39 PORT DE PLAISANCE ROSCOFF 17/08/2010 15:30:00 49 35.81′ N 7 06.60′ W 115 10.40 10.40 à 15.30 nm

36 Armel Tripon 7 GEDIMAT 17/08/2010 15:30:00 49 31.29′ N 7 10.52′ W 112 11.20 11.20 à 15.50 nm

37 Isabelle Joschke 66 SYNERGIE 17/08/2010 15:30:00 49 31.69′ N 7 11.77′ W 115 10.50 10.40 à 16.40 nm

38 B Loic Le Garrec 20 SOCIETE POULIQUEN 17/08/2010 15:30:00 49 36.50′ N 7 08.86′ W 111 10.90 10.80 à 16.90 nm

39 Arnaud Godart-Philippe 38 SENOBLE 17/08/2010 15:30:00 49 36.77′ N 7 12.16′ W 122 10.20 10.10 à 18.90 nm

40 Didier Bouillard 69 SUNGARD 17/08/2010 15:00:00 49 53.12′ N 7 09.64′ W 119 10.70 10.70 à 20.60 nm

41 Louis-Maurice Tannyeres 65 STERICSSON 17/08/2010 15:30:00 49 45.65′ N 7 08.51′ W 124 10.20 10.20 à 21.20 nm

42 B Bernard Stamm 59 CHEMINEES POUJOULAT DNF

NL Armel Le Cleac’h 62 BRIT AIR

44 Matthieu Girolet 86 ENTREPRENDRE (LAFONT PRESSE) DNF

45 Frederic Duthil 98 BBOX BOUYGUES TELECOM DNC

B : Bizuth (Première participation)

La Solitaire du Figaro Positions éditées le 17/08/2010 à 16:05:26 Page 1/1